sensor_id;sensor_type;location;lat;lon;timestamp;temperature;humidity
41310;DHT22;27057;51.438;-0.010;2022-10-16T00:01:23;12.30;99.90
41310;DHT22;27057;51.438;-0.010;2022-10-16T00:03:51;12.30;99.90
41310;DHT22;27057;51.438;-0.010;2022-10-16T00:06:21;12.30;99.90
41310;DHT22;27057;51.438;-0.010;2022-10-16T00:08:50;12.30;99.90
41310;DHT22;27057;51.438;-0.010;2022-10-16T00:11:25;12.30;99.90
41310;DHT22;27057;51.438;-0.010;2022-10-16T00:13:58;12.40;99.90
41310;DHT22;27057;51.438;-0.010;2022-10-16T00:16:26;12.40;99.90
41310;DHT22;27057;51.438;-0.010;2022-10-16T00:18:54;12.40;99.90
41310;DHT22;27057;51.438;-0.010;2022-10-16T00:21:24;12.40;99.90
41310;DHT22;27057;51.438;-0.010;2022-10-16T00:23:55;12.30;99.90
41310;DHT22;27057;51.438;-0.010;2022-10-16T00:26:23;12.30;99.90
41310;DHT22;27057;51.438;-0.010;2022-10-16T00:28:51;12.40;99.90
41310;DHT22;27057;51.438;-0.010;2022-10-16T00:31:20;12.40;99.90
41310;DHT22;27057;51.438;-0.010;2022-10-16T00:33:49;12.30;99.90
41310;DHT22;27057;51.438;-0.010;2022-10-16T00:36:19;12.40;99.90
41310;DHT22;27057;51.438;-0.010;2022-10-16T00:38:50;12.40;99.90
41310;DHT22;27057;51.438;-0.010;2022-10-16T00:41:21;12.40;99.90
41310;DHT22;27057;51.438;-0.010;2022-10-16T00:43:52;12.50;99.90
41310;DHT22;27057;51.438;-0.010;2022-10-16T00:51:49;12.50;99.90
41310;DHT22;27057;51.438;-0.010;2022-10-16T00:54:20;12.50;99.90
41310;DHT22;27057;51.438;-0.010;2022-10-16T00:56:49;12.60;99.90
41310;DHT22;27057;51.438;-0.010;2022-10-16T00:59:24;12.60;99.90
41310;DHT22;27057;51.438;-0.010;2022-10-16T01:01:53;12.60;99.90
41310;DHT22;27057;51.438;-0.010;2022-10-16T01:04:21;12.60;99.90
41310;DHT22;27057;51.438;-0.010;2022-10-16T01:09:51;12.70;99.90
41310;DHT22;27057;51.438;-0.010;2022-10-16T01:12:42;12.60;99.90
41310;DHT22;27057;51.438;-0.010;2022-10-16T01:24:08;12.70;99.90
41310;DHT22;27057;51.438;-0.010;2022-10-16T01:29:25;12.70;99.90
41310;DHT22;27057;51.438;-0.010;2022-10-16T01:31:58;12.70;99.90
41310;DHT22;27057;51.438;-0.010;2022-10-16T01:34:38;12.60;99.90
41310;DHT22;27057;51.438;-0.010;2022-10-16T01:37:16;12.60;99.90
41310;DHT22;27057;51.438;-0.010;2022-10-16T01:39:47;12.70;99.90
41310;DHT22;27057;51.438;-0.010;2022-10-16T01:42:21;12.60;99.90
41310;DHT22;27057;51.438;-0.010;2022-10-16T01:44:51;12.60;99.90
41310;DHT22;27057;51.438;-0.010;2022-10-16T01:47:22;12.70;99.90
41310;DHT22;27057;51.438;-0.010;2022-10-16T01:49:52;12.70;99.90
41310;DHT22;27057;51.438;-0.010;2022-10-16T01:52:23;12.70;99.90
41310;DHT22;27057;51.438;-0.010;2022-10-16T01:54:54;12.70;99.90
41310;DHT22;27057;51.438;-0.010;2022-10-16T01:57:24;12.80;99.90
41310;DHT22;27057;51.438;-0.010;2022-10-16T01:59:56;12.80;99.90
41310;DHT22;27057;51.438;-0.010;2022-10-16T02:02:28;12.90;99.90
41310;DHT22;27057;51.438;-0.010;2022-10-16T02:05:08;12.90;99.90
41310;DHT22;27057;51.438;-0.010;2022-10-16T02:07:37;12.90;99.90
41310;DHT22;27057;51.438;-0.010;2022-10-16T02:10:05;12.90;99.90
41310;DHT22;27057;51.438;-0.010;2022-10-16T02:12:34;12.80;99.90
41310;DHT22;27057;51.438;-0.010;2022-10-16T02:15:02;12.70;99.90
41310;DHT22;27057;51.438;-0.010;2022-10-16T02:17:30;12.60;99.90
41310;DHT22;27057;51.438;-0.010;2022-10-16T02:19:59;12.50;99.90
41310;DHT22;27057;51.438;-0.010;2022-10-16T02:22:34;12.50;99.90
41310;DHT22;27057;51.438;-0.010;2022-10-16T02:32:53;12.30;99.90
41310;DHT22;27057;51.438;-0.010;2022-10-16T02:35:23;12.20;99.90
41310;DHT22;27057;51.438;-0.010;2022-10-16T02:37:52;12.20;99.90
41310;DHT22;27057;51.438;-0.010;2022-10-16T02:40:20;12.20;99.90
41310;DHT22;27057;51.438;-0.010;2022-10-16T02:42:52;12.20;99.90
41310;DHT22;27057;51.438;-0.010;2022-10-16T02:45:21;12.20;99.90
41310;DHT22;27057;51.438;-0.010;2022-10-16T02:47:49;12.10;99.90
41310;DHT22;27057;51.438;-0.010;2022-10-16T02:50:16;12.10;99.90
41310;DHT22;27057;51.438;-0.010;2022-10-16T02:52:45;12.10;99.90
41310;DHT22;27057;51.438;-0.010;2022-10-16T02:55:12;12.10;99.90
41310;DHT22;27057;51.438;-0.010;2022-10-16T02:57:39;12.10;99.90
41310;DHT22;27057;51.438;-0.010;2022-10-16T03:00:09;12.10;99.90
41310;DHT22;27057;51.438;-0.010;2022-10-16T03:02:37;12.10;99.90
41310;DHT22;27057;51.438;-0.010;2022-10-16T03:05:05;12.20;99.90
41310;DHT22;27057;51.438;-0.010;2022-10-16T03:07:32;12.10;99.90
41310;DHT22;27057;51.438;-0.010;2022-10-16T03:10:00;12.10;99.90
41310;DHT22;27057;51.438;-0.010;2022-10-16T03:12:28;12.00;99.90
41310;DHT22;27057;51.438;-0.010;2022-10-16T03:14:57;12.00;99.90
41310;DHT22;27057;51.438;-0.010;2022-10-16T03:17:24;12.00;99.90
41310;DHT22;27057;51.438;-0.010;2022-10-16T03:19:52;12.00;99.90
41310;DHT22;27057;51.438;-0.010;2022-10-16T03:22:20;12.00;99.90
41310;DHT22;27057;51.438;-0.010;2022-10-16T03:24:47;12.00;99.90
41310;DHT22;27057;51.438;-0.010;2022-10-16T03:27:14;12.00;99.90
41310;DHT22;27057;51.438;-0.010;2022-10-16T03:29:42;12.00;99.90
41310;DHT22;27057;51.438;-0.010;2022-10-16T03:32:09;12.00;99.90
41310;DHT22;27057;51.438;-0.010;2022-10-16T03:34:36;12.00;99.90
41310;DHT22;27057;51.438;-0.010;2022-10-16T03:37:04;12.00;99.90
41310;DHT22;27057;51.438;-0.010;2022-10-16T03:39:31;11.90;99.90
41310;DHT22;27057;51.438;-0.010;2022-10-16T03:41:59;11.90;99.90
41310;DHT22;27057;51.438;-0.010;2022-10-16T03:44:26;11.90;99.90
41310;DHT22;27057;51.438;-0.010;2022-10-16T03:46:53;11.80;99.90
41310;DHT22;27057;51.438;-0.010;2022-10-16T03:49:21;11.90;99.90
41310;DHT22;27057;51.438;-0.010;2022-10-16T03:51:48;11.90;99.90
41310;DHT22;27057;51.438;-0.010;2022-10-16T03:54:16;11.90;99.90
41310;DHT22;27057;51.438;-0.010;2022-10-16T03:56:43;11.90;99.90
41310;DHT22;27057;51.438;-0.010;2022-10-16T03:59:10;11.90;99.90
41310;DHT22;27057;51.438;-0.010;2022-10-16T04:01:37;11.90;99.90
41310;DHT22;27057;51.438;-0.010;2022-10-16T04:04:05;11.90;99.90
41310;DHT22;27057;51.438;-0.010;2022-10-16T04:06:32;11.90;99.90
41310;DHT22;27057;51.438;-0.010;2022-10-16T04:08:59;11.90;99.90
41310;DHT22;27057;51.438;-0.010;2022-10-16T04:11:27;11.90;99.90
41310;DHT22;27057;51.438;-0.010;2022-10-16T04:13:54;11.80;99.90
41310;DHT22;27057;51.438;-0.010;2022-10-16T04:16:22;11.90;99.90
41310;DHT22;27057;51.438;-0.010;2022-10-16T04:18:49;11.90;99.90
41310;DHT22;27057;51.438;-0.010;2022-10-16T04:21:16;11.90;99.90
41310;DHT22;27057;51.438;-0.010;2022-10-16T04:23:44;11.90;99.90
41310;DHT22;27057;51.438;-0.010;2022-10-16T04:26:11;11.80;99.90
41310;DHT22;27057;51.438;-0.010;2022-10-16T04:28:39;11.90;99.90
41310;DHT22;27057;51.438;-0.010;2022-10-16T04:31:07;11.90;99.90
41310;DHT22;27057;51.438;-0.010;2022-10-16T04:33:34;11.90;99.90
41310;DHT22;27057;51.438;-0.010;2022-10-16T04:36:03;11.90;99.90
41310;DHT22;27057;51.438;-0.010;2022-10-16T04:38:31;11.90;99.90
41310;DHT22;27057;51.438;-0.010;2022-10-16T04:40:58;11.80;99.90
41310;DHT22;27057;51.438;-0.010;2022-10-16T04:43:27;11.80;99.90
41310;DHT22;27057;51.438;-0.010;2022-10-16T04:45:54;11.80;99.90
41310;DHT22;27057;51.438;-0.010;2022-10-16T04:48:23;11.80;99.90
41310;DHT22;27057;51.438;-0.010;2022-10-16T04:50:51;11.70;99.90
41310;DHT22;27057;51.438;-0.010;2022-10-16T04:53:21;11.70;99.90
41310;DHT22;27057;51.438;-0.010;2022-10-16T04:55:49;11.70;99.90
41310;DHT22;27057;51.438;-0.010;2022-10-16T04:58:17;11.70;99.90
41310;DHT22;27057;51.438;-0.010;2022-10-16T05:00:45;11.70;99.90
41310;DHT22;27057;51.438;-0.010;2022-10-16T05:03:13;11.70;99.90
41310;DHT22;27057;51.438;-0.010;2022-10-16T05:05:45;11.70;99.90
41310;DHT22;27057;51.438;-0.010;2022-10-16T05:08:13;11.70;99.90
41310;DHT22;27057;51.438;-0.010;2022-10-16T05:10:42;11.70;99.90
41310;DHT22;27057;51.438;-0.010;2022-10-16T05:13:10;11.70;99.90
41310;DHT22;27057;51.438;-0.010;2022-10-16T05:15:37;11.70;99.90
41310;DHT22;27057;51.438;-0.010;2022-10-16T05:18:05;11.70;99.90
41310;DHT22;27057;51.438;-0.010;2022-10-16T05:20:32;11.70;99.90
41310;DHT22;27057;51.438;-0.010;2022-10-16T05:23:00;11.80;99.90
41310;DHT22;27057;51.438;-0.010;2022-10-16T05:25:27;11.80;99.90
41310;DHT22;27057;51.438;-0.010;2022-10-16T05:27:55;11.80;99.90
41310;DHT22;27057;51.438;-0.010;2022-10-16T05:30:22;11.80;99.90
41310;DHT22;27057;51.438;-0.010;2022-10-16T05:32:52;11.80;99.90
41310;DHT22;27057;51.438;-0.010;2022-10-16T05:35:20;11.80;99.90
41310;DHT22;27057;51.438;-0.010;2022-10-16T05:37:47;11.70;99.90
41310;DHT22;27057;51.438;-0.010;2022-10-16T05:40:15;11.80;99.90
41310;DHT22;27057;51.438;-0.010;2022-10-16T05:42:43;11.70;99.90
41310;DHT22;27057;51.438;-0.010;2022-10-16T05:45:11;11.70;99.90
41310;DHT22;27057;51.438;-0.010;2022-10-16T05:47:39;11.70;99.90
41310;DHT22;27057;51.438;-0.010;2022-10-16T05:50:07;11.70;99.90
41310;DHT22;27057;51.438;-0.010;2022-10-16T05:52:34;11.70;99.90
41310;DHT22;27057;51.438;-0.010;2022-10-16T05:55:02;11.60;99.90
41310;DHT22;27057;51.438;-0.010;2022-10-16T05:57:30;11.60;99.90
41310;DHT22;27057;51.438;-0.010;2022-10-16T05:59:57;11.60;99.90
41310;DHT22;27057;51.438;-0.010;2022-10-16T06:02:24;11.50;99.90
41310;DHT22;27057;51.438;-0.010;2022-10-16T06:04:52;11.60;99.90
41310;DHT22;27057;51.438;-0.010;2022-10-16T06:07:22;11.60;99.90
41310;DHT22;27057;51.438;-0.010;2022-10-16T06:09:51;11.60;99.90
41310;DHT22;27057;51.438;-0.010;2022-10-16T06:12:19;11.60;99.90
41310;DHT22;27057;51.438;-0.010;2022-10-16T06:14:46;11.60;99.90
41310;DHT22;27057;51.438;-0.010;2022-10-16T06:17:15;11.60;99.90
41310;DHT22;27057;51.438;-0.010;2022-10-16T06:19:42;11.50;99.90
41310;DHT22;27057;51.438;-0.010;2022-10-16T06:22:10;11.50;99.90
41310;DHT22;27057;51.438;-0.010;2022-10-16T06:24:37;11.50;99.90
41310;DHT22;27057;51.438;-0.010;2022-10-16T06:27:05;11.50;99.90
41310;DHT22;27057;51.438;-0.010;2022-10-16T06:29:33;11.50;99.90
41310;DHT22;27057;51.438;-0.010;2022-10-16T06:32:00;11.40;99.90
41310;DHT22;27057;51.438;-0.010;2022-10-16T06:34:27;11.40;99.90
41310;DHT22;27057;51.438;-0.010;2022-10-16T06:36:54;11.50;99.90
41310;DHT22;27057;51.438;-0.010;2022-10-16T06:39:22;11.40;99.90
41310;DHT22;27057;51.438;-0.010;2022-10-16T06:41:49;11.40;99.90
41310;DHT22;27057;51.438;-0.010;2022-10-16T06:44:17;11.40;99.90
41310;DHT22;27057;51.438;-0.010;2022-10-16T06:46:44;11.40;99.90
41310;DHT22;27057;51.438;-0.010;2022-10-16T06:49:11;11.40;99.90
41310;DHT22;27057;51.438;-0.010;2022-10-16T06:51:39;11.40;99.90
41310;DHT22;27057;51.438;-0.010;2022-10-16T06:54:09;11.40;99.90
41310;DHT22;27057;51.438;-0.010;2022-10-16T06:56:37;11.40;99.90
41310;DHT22;27057;51.438;-0.010;2022-10-16T06:59:04;11.40;99.90
41310;DHT22;27057;51.438;-0.010;2022-10-16T07:01:32;11.40;99.90
41310;DHT22;27057;51.438;-0.010;2022-10-16T07:04:00;11.40;99.90
41310;DHT22;27057;51.438;-0.010;2022-10-16T07:06:32;11.40;99.90
41310;DHT22;27057;51.438;-0.010;2022-10-16T07:09:03;11.40;99.90
41310;DHT22;27057;51.438;-0.010;2022-10-16T07:11:31;11.40;99.90
41310;DHT22;27057;51.438;-0.010;2022-10-16T07:13:58;11.40;99.90
41310;DHT22;27057;51.438;-0.010;2022-10-16T07:16:28;11.50;99.90
41310;DHT22;27057;51.438;-0.010;2022-10-16T07:18:58;11.50;99.90
41310;DHT22;27057;51.438;-0.010;2022-10-16T07:21:30;11.60;99.90
41310;DHT22;27057;51.438;-0.010;2022-10-16T07:23:59;11.60;99.90
41310;DHT22;27057;51.438;-0.010;2022-10-16T07:26:30;11.60;99.90
41310;DHT22;27057;51.438;-0.010;2022-10-16T07:28:58;11.60;99.90
41310;DHT22;27057;51.438;-0.010;2022-10-16T07:31:26;11.70;99.90
41310;DHT22;27057;51.438;-0.010;2022-10-16T07:33:54;11.70;99.90
41310;DHT22;27057;51.438;-0.010;2022-10-16T07:36:22;11.80;99.90
41310;DHT22;27057;51.438;-0.010;2022-10-16T07:38:49;11.80;99.90
41310;DHT22;27057;51.438;-0.010;2022-10-16T07:41:21;11.90;99.90
41310;DHT22;27057;51.438;-0.010;2022-10-16T07:43:51;11.90;99.90
41310;DHT22;27057;51.438;-0.010;2022-10-16T07:46:20;12.00;99.90
41310;DHT22;27057;51.438;-0.010;2022-10-16T07:48:48;12.00;99.90
41310;DHT22;27057;51.438;-0.010;2022-10-16T07:51:18;12.00;99.90
41310;DHT22;27057;51.438;-0.010;2022-10-16T07:53:46;12.00;99.90
41310;DHT22;27057;51.438;-0.010;2022-10-16T07:56:15;12.00;99.90
41310;DHT22;27057;51.438;-0.010;2022-10-16T07:58:43;12.10;99.90
41310;DHT22;27057;51.438;-0.010;2022-10-16T08:01:12;12.10;99.90
41310;DHT22;27057;51.438;-0.010;2022-10-16T08:03:45;12.10;99.90
41310;DHT22;27057;51.438;-0.010;2022-10-16T08:06:13;12.10;99.90
41310;DHT22;27057;51.438;-0.010;2022-10-16T08:08:41;12.20;99.90
41310;DHT22;27057;51.438;-0.010;2022-10-16T08:11:08;12.20;99.90
41310;DHT22;27057;51.438;-0.010;2022-10-16T08:13:36;12.20;99.90
41310;DHT22;27057;51.438;-0.010;2022-10-16T08:16:04;12.20;99.90
41310;DHT22;27057;51.438;-0.010;2022-10-16T08:18:36;12.20;99.90
41310;DHT22;27057;51.438;-0.010;2022-10-16T08:21:04;12.10;99.90
41310;DHT22;27057;51.438;-0.010;2022-10-16T08:23:33;12.10;99.90
41310;DHT22;27057;51.438;-0.010;2022-10-16T08:26:06;12.10;99.90
41310;DHT22;27057;51.438;-0.010;2022-10-16T08:28:35;12.00;99.90
41310;DHT22;27057;51.438;-0.010;2022-10-16T08:31:09;12.00;99.90
41310;DHT22;27057;51.438;-0.010;2022-10-16T08:33:38;12.00;99.90
41310;DHT22;27057;51.438;-0.010;2022-10-16T08:36:06;12.00;99.90
41310;DHT22;27057;51.438;-0.010;2022-10-16T08:38:34;12.10;99.90
41310;DHT22;27057;51.438;-0.010;2022-10-16T08:49:27;12.30;99.90
41310;DHT22;27057;51.438;-0.010;2022-10-16T08:51:56;12.40;99.90
41310;DHT22;27057;51.438;-0.010;2022-10-16T08:54:43;12.50;99.90
41310;DHT22;27057;51.438;-0.010;2022-10-16T08:57:19;12.50;99.90
41310;DHT22;27057;51.438;-0.010;2022-10-16T08:59:51;12.60;99.90
41310;DHT22;27057;51.438;-0.010;2022-10-16T09:02:25;12.70;99.90
41310;DHT22;27057;51.438;-0.010;2022-10-16T09:18:38;13.00;99.90
41310;DHT22;27057;51.438;-0.010;2022-10-16T09:21:27;13.10;99.90
41310;DHT22;27057;51.438;-0.010;2022-10-16T09:24:06;13.20;99.90
41310;DHT22;27057;51.438;-0.010;2022-10-16T09:26:35;13.30;99.90
41310;DHT22;27057;51.438;-0.010;2022-10-16T09:29:03;13.30;99.90
41310;DHT22;27057;51.438;-0.010;2022-10-16T09:31:30;13.40;99.90
41310;DHT22;27057;51.438;-0.010;2022-10-16T09:34:02;13.40;99.90
41310;DHT22;27057;51.438;-0.010;2022-10-16T09:36:43;13.50;99.90
41310;DHT22;27057;51.438;-0.010;2022-10-16T09:39:12;13.60;99.90
41310;DHT22;27057;51.438;-0.010;2022-10-16T09:41:41;13.70;99.90
41310;DHT22;27057;51.438;-0.010;2022-10-16T09:44:19;13.80;99.90
41310;DHT22;27057;51.438;-0.010;2022-10-16T09:46:48;13.90;99.90
41310;DHT22;27057;51.438;-0.010;2022-10-16T09:49:25;14.00;99.90
41310;DHT22;27057;51.438;-0.010;2022-10-16T09:52:12;14.00;99.90
41310;DHT22;27057;51.438;-0.010;2022-10-16T09:54:57;14.10;99.90
41310;DHT22;27057;51.438;-0.010;2022-10-16T09:57:25;14.20;99.90
41310;DHT22;27057;51.438;-0.010;2022-10-16T09:59:57;14.20;99.90
41310;DHT22;27057;51.438;-0.010;2022-10-16T10:02:35;14.20;99.90
41310;DHT22;27057;51.438;-0.010;2022-10-16T10:05:21;14.20;99.90
41310;DHT22;27057;51.438;-0.010;2022-10-16T10:07:57;14.30;99.90
41310;DHT22;27057;51.438;-0.010;2022-10-16T10:10:27;14.30;99.90
41310;DHT22;27057;51.438;-0.010;2022-10-16T10:12:56;14.50;99.90
41310;DHT22;27057;51.438;-0.010;2022-10-16T10:15:24;14.50;99.90
41310;DHT22;27057;51.438;-0.010;2022-10-16T10:17:55;14.50;99.90
41310;DHT22;27057;51.438;-0.010;2022-10-16T10:20:26;14.60;99.90
41310;DHT22;27057;51.438;-0.010;2022-10-16T10:22:55;14.70;99.90
41310;DHT22;27057;51.438;-0.010;2022-10-16T10:25:35;14.70;99.90
41310;DHT22;27057;51.438;-0.010;2022-10-16T10:44:36;15.30;99.90
41310;DHT22;27057;51.438;-0.010;2022-10-16T10:50:22;15.50;99.90
41310;DHT22;27057;51.438;-0.010;2022-10-16T11:01:19;15.90;99.90
41310;DHT22;27057;51.438;-0.010;2022-10-16T11:06:31;16.20;99.90
41310;DHT22;27057;51.438;-0.010;2022-10-16T11:09:14;16.40;99.90
41310;DHT22;27057;51.438;-0.010;2022-10-16T11:12:15;16.60;99.90
41310;DHT22;27057;51.438;-0.010;2022-10-16T11:17:50;17.00;99.90
41310;DHT22;27057;51.438;-0.010;2022-10-16T11:20:25;17.10;99.90
41310;DHT22;27057;51.438;-0.010;2022-10-16T11:22:54;17.30;99.90
41310;DHT22;27057;51.438;-0.010;2022-10-16T11:25:29;17.40;99.90
41310;DHT22;27057;51.438;-0.010;2022-10-16T11:28:11;17.50;99.90
41310;DHT22;27057;51.438;-0.010;2022-10-16T11:30:47;17.60;99.90
41310;DHT22;27057;51.438;-0.010;2022-10-16T11:33:28;17.60;99.90
41310;DHT22;27057;51.438;-0.010;2022-10-16T11:39:11;17.60;99.90
41310;DHT22;27057;51.438;-0.010;2022-10-16T11:42:03;17.70;99.90
41310;DHT22;27057;51.438;-0.010;2022-10-16T11:53:13;17.90;99.90
41310;DHT22;27057;51.438;-0.010;2022-10-16T11:55:45;17.90;99.90
41310;DHT22;27057;51.438;-0.010;2022-10-16T11:58:35;18.00;99.90
41310;DHT22;27057;51.438;-0.010;2022-10-16T12:07:03;18.50;99.90
41310;DHT22;27057;51.438;-0.010;2022-10-16T12:09:37;18.80;99.90
41310;DHT22;27057;51.438;-0.010;2022-10-16T12:12:27;19.00;99.90
41310;DHT22;27057;51.438;-0.010;2022-10-16T12:18:21;19.20;99.90
41310;DHT22;27057;51.438;-0.010;2022-10-16T12:20:59;18.90;99.90
41310;DHT22;27057;51.438;-0.010;2022-10-16T12:23:36;18.80;99.90
41310;DHT22;27057;51.438;-0.010;2022-10-16T12:26:05;18.60;99.90
41310;DHT22;27057;51.438;-0.010;2022-10-16T12:28:33;18.50;99.90
41310;DHT22;27057;51.438;-0.010;2022-10-16T12:31:06;18.40;99.90
41310;DHT22;27057;51.438;-0.010;2022-10-16T12:33:37;18.30;99.90
41310;DHT22;27057;51.438;-0.010;2022-10-16T12:36:33;18.30;99.90
41310;DHT22;27057;51.438;-0.010;2022-10-16T12:39:21;18.30;99.90
41310;DHT22;27057;51.438;-0.010;2022-10-16T12:42:01;18.00;99.90
41310;DHT22;27057;51.438;-0.010;2022-10-16T12:44:34;17.90;99.90
41310;DHT22;27057;51.438;-0.010;2022-10-16T12:47:02;17.80;99.90
41310;DHT22;27057;51.438;-0.010;2022-10-16T12:49:37;17.80;99.90
41310;DHT22;27057;51.438;-0.010;2022-10-16T12:55:00;17.50;99.90
41310;DHT22;27057;51.438;-0.010;2022-10-16T12:58:27;17.50;99.90
41310;DHT22;27057;51.438;-0.010;2022-10-16T13:28:03;17.10;99.90
41310;DHT22;27057;51.438;-0.010;2022-10-16T13:30:41;17.10;99.90
41310;DHT22;27057;51.438;-0.010;2022-10-16T13:35:37;17.10;99.90
41310;DHT22;27057;51.438;-0.010;2022-10-16T13:40:33;17.20;99.90
41310;DHT22;27057;51.438;-0.010;2022-10-16T13:43:01;17.20;99.90
41310;DHT22;27057;51.438;-0.010;2022-10-16T13:45:29;17.40;99.90
41310;DHT22;27057;51.438;-0.010;2022-10-16T13:48:04;17.50;99.90
41310;DHT22;27057;51.438;-0.010;2022-10-16T13:50:32;17.60;99.90
41310;DHT22;27057;51.438;-0.010;2022-10-16T13:53:25;17.60;99.90
41310;DHT22;27057;51.438;-0.010;2022-10-16T13:55:53;17.70;99.90
41310;DHT22;27057;51.438;-0.010;2022-10-16T13:58:20;17.70;99.90
41310;DHT22;27057;51.438;-0.010;2022-10-16T14:01:25;17.70;99.90
41310;DHT22;27057;51.438;-0.010;2022-10-16T14:04:07;17.80;99.90
41310;DHT22;27057;51.438;-0.010;2022-10-16T14:06:36;17.80;99.90
41310;DHT22;27057;51.438;-0.010;2022-10-16T14:09:29;17.80;99.90
41310;DHT22;27057;51.438;-0.010;2022-10-16T14:12:17;17.70;99.90
41310;DHT22;27057;51.438;-0.010;2022-10-16T14:14:50;17.80;99.90
41310;DHT22;27057;51.438;-0.010;2022-10-16T14:17:33;17.80;99.90
41310;DHT22;27057;51.438;-0.010;2022-10-16T14:20:05;17.80;99.90
41310;DHT22;27057;51.438;-0.010;2022-10-16T14:22:40;17.70;99.90
41310;DHT22;27057;51.438;-0.010;2022-10-16T14:28:14;17.70;99.90
41310;DHT22;27057;51.438;-0.010;2022-10-16T14:31:23;17.60;99.90
41310;DHT22;27057;51.438;-0.010;2022-10-16T14:33:51;17.70;99.90
41310;DHT22;27057;51.438;-0.010;2022-10-16T14:36:19;17.60;99.90
41310;DHT22;27057;51.438;-0.010;2022-10-16T14:41:21;17.50;99.90
41310;DHT22;27057;51.438;-0.010;2022-10-16T14:43:53;17.50;99.90
41310;DHT22;27057;51.438;-0.010;2022-10-16T14:46:28;17.40;99.90
41310;DHT22;27057;51.438;-0.010;2022-10-16T14:51:33;17.30;99.90
41310;DHT22;27057;51.438;-0.010;2022-10-16T14:54:00;17.20;99.90
41310;DHT22;27057;51.438;-0.010;2022-10-16T14:56:51;17.10;99.90
41310;DHT22;27057;51.438;-0.010;2022-10-16T14:59:23;17.10;99.90
41310;DHT22;27057;51.438;-0.010;2022-10-16T15:01:52;17.10;99.90
41310;DHT22;27057;51.438;-0.010;2022-10-16T15:04:19;17.00;99.90
41310;DHT22;27057;51.438;-0.010;2022-10-16T15:06:47;16.90;99.90
41310;DHT22;27057;51.438;-0.010;2022-10-16T15:09:14;16.90;99.90
41310;DHT22;27057;51.438;-0.010;2022-10-16T15:11:42;16.90;99.90
41310;DHT22;27057;51.438;-0.010;2022-10-16T15:14:13;16.80;99.90
41310;DHT22;27057;51.438;-0.010;2022-10-16T15:16:45;16.70;99.90
41310;DHT22;27057;51.438;-0.010;2022-10-16T15:19:13;16.60;99.90
41310;DHT22;27057;51.438;-0.010;2022-10-16T15:21:40;16.60;99.90
41310;DHT22;27057;51.438;-0.010;2022-10-16T15:24:11;16.50;99.90
41310;DHT22;27057;51.438;-0.010;2022-10-16T15:26:44;16.50;99.90
41310;DHT22;27057;51.438;-0.010;2022-10-16T15:29:13;16.40;99.90
41310;DHT22;27057;51.438;-0.010;2022-10-16T15:31:40;16.40;99.90
41310;DHT22;27057;51.438;-0.010;2022-10-16T15:34:10;16.40;99.90
41310;DHT22;27057;51.438;-0.010;2022-10-16T15:36:38;16.30;99.90
41310;DHT22;27057;51.438;-0.010;2022-10-16T15:39:29;16.30;99.90
41310;DHT22;27057;51.438;-0.010;2022-10-16T15:41:56;16.30;99.90
41310;DHT22;27057;51.438;-0.010;2022-10-16T15:44:23;16.30;99.90
41310;DHT22;27057;51.438;-0.010;2022-10-16T15:46:54;16.20;99.90
41310;DHT22;27057;51.438;-0.010;2022-10-16T15:49:22;16.20;99.90
41310;DHT22;27057;51.438;-0.010;2022-10-16T15:51:49;16.20;99.90
41310;DHT22;27057;51.438;-0.010;2022-10-16T15:54:18;16.20;99.90
41310;DHT22;27057;51.438;-0.010;2022-10-16T15:56:50;16.10;99.90
41310;DHT22;27057;51.438;-0.010;2022-10-16T15:59:20;16.10;99.90
41310;DHT22;27057;51.438;-0.010;2022-10-16T16:01:47;16.10;99.90
41310;DHT22;27057;51.438;-0.010;2022-10-16T16:04:16;16.10;99.90
41310;DHT22;27057;51.438;-0.010;2022-10-16T16:07:04;16.00;99.90
41310;DHT22;27057;51.438;-0.010;2022-10-16T16:09:34;16.00;99.90
41310;DHT22;27057;51.438;-0.010;2022-10-16T16:12:01;16.00;99.90
41310;DHT22;27057;51.438;-0.010;2022-10-16T16:14:29;15.90;99.90
41310;DHT22;27057;51.438;-0.010;2022-10-16T16:16:57;15.90;99.90
41310;DHT22;27057;51.438;-0.010;2022-10-16T16:19:25;15.90;99.90
41310;DHT22;27057;51.438;-0.010;2022-10-16T16:21:52;15.80;99.90
41310;DHT22;27057;51.438;-0.010;2022-10-16T16:24:20;15.80;99.90
41310;DHT22;27057;51.438;-0.010;2022-10-16T16:26:47;15.80;99.90
41310;DHT22;27057;51.438;-0.010;2022-10-16T16:29:15;15.80;99.90
41310;DHT22;27057;51.438;-0.010;2022-10-16T16:31:43;15.70;99.90
41310;DHT22;27057;51.438;-0.010;2022-10-16T16:34:11;15.70;99.90
41310;DHT22;27057;51.438;-0.010;2022-10-16T16:36:38;15.70;99.90
41310;DHT22;27057;51.438;-0.010;2022-10-16T16:39:07;15.60;99.90
41310;DHT22;27057;51.438;-0.010;2022-10-16T16:41:35;15.60;99.90
41310;DHT22;27057;51.438;-0.010;2022-10-16T16:44:04;15.60;99.90
41310;DHT22;27057;51.438;-0.010;2022-10-16T16:46:32;15.50;99.90
41310;DHT22;27057;51.438;-0.010;2022-10-16T16:49:00;15.50;99.90
41310;DHT22;27057;51.438;-0.010;2022-10-16T16:51:28;15.50;99.90
41310;DHT22;27057;51.438;-0.010;2022-10-16T16:53:56;15.40;99.90
41310;DHT22;27057;51.438;-0.010;2022-10-16T16:56:24;15.40;99.90
41310;DHT22;27057;51.438;-0.010;2022-10-16T16:58:55;15.40;99.90
41310;DHT22;27057;51.438;-0.010;2022-10-16T17:01:24;15.40;99.90
41310;DHT22;27057;51.438;-0.010;2022-10-16T17:03:54;15.30;99.90
41310;DHT22;27057;51.438;-0.010;2022-10-16T17:06:28;15.30;99.90
41310;DHT22;27057;51.438;-0.010;2022-10-16T17:09:01;15.30;99.90
41310;DHT22;27057;51.438;-0.010;2022-10-16T17:11:29;15.30;99.90
41310;DHT22;27057;51.438;-0.010;2022-10-16T17:13:59;15.30;99.90
41310;DHT22;27057;51.438;-0.010;2022-10-16T17:16:33;15.30;99.90
41310;DHT22;27057;51.438;-0.010;2022-10-16T17:19:05;15.30;99.90
41310;DHT22;27057;51.438;-0.010;2022-10-16T17:21:34;15.30;99.90
41310;DHT22;27057;51.438;-0.010;2022-10-16T17:24:02;15.20;99.90
41310;DHT22;27057;51.438;-0.010;2022-10-16T17:26:31;15.20;99.90
41310;DHT22;27057;51.438;-0.010;2022-10-16T17:29:00;15.20;99.90
41310;DHT22;27057;51.438;-0.010;2022-10-16T17:31:31;15.20;99.90
41310;DHT22;27057;51.438;-0.010;2022-10-16T17:33:59;15.20;99.90
41310;DHT22;27057;51.438;-0.010;2022-10-16T17:36:27;15.20;99.90
41310;DHT22;27057;51.438;-0.010;2022-10-16T17:39:02;15.20;99.90
41310;DHT22;27057;51.438;-0.010;2022-10-16T17:41:31;15.10;99.90
41310;DHT22;27057;51.438;-0.010;2022-10-16T17:43:59;15.10;99.90
41310;DHT22;27057;51.438;-0.010;2022-10-16T17:46:27;15.10;99.90
41310;DHT22;27057;51.438;-0.010;2022-10-16T17:48:55;15.00;99.90
41310;DHT22;27057;51.438;-0.010;2022-10-16T17:51:28;15.00;99.90
41310;DHT22;27057;51.438;-0.010;2022-10-16T17:53:57;15.00;99.90
41310;DHT22;27057;51.438;-0.010;2022-10-16T17:56:26;15.00;99.90
41310;DHT22;27057;51.438;-0.010;2022-10-16T17:58:56;15.00;99.90
41310;DHT22;27057;51.438;-0.010;2022-10-16T18:01:47;15.00;99.90
41310;DHT22;27057;51.438;-0.010;2022-10-16T18:04:16;15.00;99.90
41310;DHT22;27057;51.438;-0.010;2022-10-16T18:06:44;15.00;99.90